createdAt,value
2023-08-17T00:00:32.976Z,17.16
2023-08-17T00:03:00.762Z,17.05
2023-08-17T00:05:29.224Z,17.19
2023-08-17T00:07:57.054Z,17.11
2023-08-17T00:10:25.211Z,17.02
2023-08-17T00:12:54.309Z,17.08
2023-08-17T00:15:22.290Z,17.01
2023-08-17T00:17:50.151Z,16.77
2023-08-17T00:20:18.314Z,16.71
2023-08-17T00:22:46.083Z,16.53
2023-08-17T00:25:14.749Z,16.45
2023-08-17T00:27:42.501Z,16.44
2023-08-17T00:30:12.922Z,16.40
2023-08-17T00:32:40.834Z,16.27
2023-08-17T00:35:09.699Z,16.34
2023-08-17T00:37:37.560Z,16.36
2023-08-17T00:40:06.086Z,16.33
2023-08-17T00:42:33.938Z,16.30
2023-08-17T00:45:01.791Z,16.19
2023-08-17T00:47:31.294Z,16.20
2023-08-17T00:50:00.295Z,16.16
2023-08-17T00:52:28.368Z,16.08
2023-08-17T00:54:57.103Z,16.07
2023-08-17T00:57:25.593Z,16.13
2023-08-17T01:00:04.725Z,16.05
2023-08-17T01:02:36.644Z,16.02
2023-08-17T01:05:07.119Z,16.06
2023-08-17T01:07:35.144Z,16.12
2023-08-17T01:10:04.227Z,16.10
2023-08-17T01:12:33.736Z,16.08
2023-08-17T01:15:10.158Z,16.05
2023-08-17T01:17:45.063Z,16.00
2023-08-17T01:20:15.776Z,16.08
2023-08-17T01:22:47.126Z,16.06
2023-08-17T01:25:16.325Z,16.02
2023-08-17T01:27:46.280Z,16.02
2023-08-17T01:30:17.112Z,15.92
2023-08-17T01:32:53.266Z,15.89
2023-08-17T01:35:31.272Z,15.97
2023-08-17T01:38:04.847Z,15.93
2023-08-17T01:40:35.737Z,15.91
2023-08-17T01:43:04.947Z,15.89
2023-08-17T01:45:32.794Z,15.91
2023-08-17T01:48:03.349Z,15.98
2023-08-17T01:50:32.426Z,15.90
2023-08-17T01:53:00.240Z,15.90
2023-08-17T01:55:28.268Z,15.82
2023-08-17T01:57:57.412Z,15.87
2023-08-17T02:00:25.662Z,15.79
2023-08-17T02:02:53.406Z,15.71
2023-08-17T02:05:21.281Z,15.64
2023-08-17T02:07:49.067Z,15.69
2023-08-17T02:10:17.051Z,15.67
2023-08-17T02:12:44.847Z,15.62
2023-08-17T02:15:14.530Z,15.67
2023-08-17T02:17:42.376Z,15.63
2023-08-17T02:20:12.145Z,15.65
2023-08-17T02:22:39.924Z,15.74
2023-08-17T02:25:09.078Z,15.74
2023-08-17T02:27:36.919Z,15.71
2023-08-17T02:30:05.258Z,15.70
2023-08-17T02:32:34.408Z,15.79
2023-08-17T02:35:02.244Z,15.84
2023-08-17T02:37:29.998Z,15.85
2023-08-17T02:39:58.809Z,15.78
2023-08-17T02:42:26.720Z,15.71
2023-08-17T02:44:55.577Z,15.72
2023-08-17T02:47:23.436Z,15.71
2023-08-17T02:49:52.713Z,15.73
2023-08-17T02:52:20.511Z,15.66
2023-08-17T02:54:48.266Z,15.76
2023-08-17T02:57:16.106Z,15.75
2023-08-17T02:59:43.965Z,15.79
2023-08-17T03:02:11.708Z,15.78
2023-08-17T03:04:39.548Z,15.70
2023-08-17T03:07:08.846Z,15.75
2023-08-17T03:09:37.881Z,15.74
2023-08-17T03:12:06.489Z,15.75
2023-08-17T03:14:34.317Z,15.84
2023-08-17T03:17:02.075Z,15.79
2023-08-17T03:19:29.893Z,15.77
2023-08-17T03:21:57.732Z,15.85
2023-08-17T03:24:27.326Z,15.70
2023-08-17T03:26:55.485Z,15.73
2023-08-17T03:29:27.139Z,15.79
2023-08-17T03:31:56.886Z,15.80
2023-08-17T03:34:25.263Z,15.73
2023-08-17T03:36:53.075Z,15.72
2023-08-17T03:39:20.995Z,15.75
2023-08-17T03:41:50.550Z,15.76
2023-08-17T03:44:18.342Z,15.81
2023-08-17T03:46:46.088Z,15.90
2023-08-17T03:49:15.569Z,15.85
2023-08-17T03:51:43.396Z,15.73
2023-08-17T03:54:12.370Z,15.78
2023-08-17T03:56:40.175Z,15.78
2023-08-17T03:59:09.279Z,15.79
2023-08-17T04:01:37.103Z,15.74
2023-08-17T04:04:05.355Z,15.77
2023-08-17T04:06:33.360Z,15.79
2023-08-17T04:09:01.772Z,15.84
2023-08-17T04:11:30.507Z,15.74
2023-08-17T04:13:58.373Z,15.68
2023-08-17T04:16:27.617Z,15.76
2023-08-17T04:18:55.413Z,15.74
2023-08-17T04:21:23.229Z,15.74
2023-08-17T04:23:50.991Z,15.77
2023-08-17T04:26:18.733Z,15.75
2023-08-17T04:28:46.528Z,15.80
2023-08-17T04:31:18.175Z,15.88
2023-08-17T04:33:49.908Z,15.91
2023-08-17T04:36:17.740Z,15.90
2023-08-17T04:38:46.004Z,16.02
2023-08-17T04:41:13.806Z,15.91
2023-08-17T04:43:41.681Z,15.93
2023-08-17T04:46:09.475Z,15.78
2023-08-17T04:48:38.491Z,15.82
2023-08-17T04:51:08.021Z,15.84
2023-08-17T04:53:35.891Z,15.87
2023-08-17T04:56:04.785Z,15.91
2023-08-17T04:58:33.037Z,15.91
2023-08-17T05:01:01.478Z,15.95
2023-08-17T05:03:33.666Z,15.85
2023-08-17T05:06:02.659Z,15.89
2023-08-17T05:08:31.868Z,15.99
2023-08-17T05:10:59.668Z,16.04
2023-08-17T05:13:27.973Z,16.17
2023-08-17T05:15:59.046Z,16.18
2023-08-17T05:18:26.979Z,16.13
2023-08-17T05:20:55.943Z,15.86
2023-08-17T05:23:23.702Z,15.90
2023-08-17T05:25:53.529Z,15.98
2023-08-17T05:28:21.349Z,15.97
2023-08-17T05:30:51.015Z,15.91
2023-08-17T05:33:18.955Z,16.03
2023-08-17T05:35:47.359Z,16.08
2023-08-17T05:38:15.134Z,16.02
2023-08-17T05:40:43.236Z,16.06
2023-08-17T05:43:13.458Z,16.04
2023-08-17T05:45:41.233Z,16.06
2023-08-17T05:48:09.015Z,16.06
2023-08-17T05:50:36.816Z,16.13
2023-08-17T05:53:04.948Z,16.08
2023-08-17T05:55:32.707Z,16.12
2023-08-17T05:58:00.443Z,16.17
2023-08-17T06:00:29.595Z,16.18
2023-08-17T06:03:02.273Z,16.18
2023-08-17T06:05:30.708Z,16.01
2023-08-17T06:07:58.902Z,16.06
2023-08-17T06:10:27.210Z,16.19
2023-08-17T06:12:55.680Z,16.16
2023-08-17T06:15:23.863Z,16.10
2023-08-17T06:17:53.527Z,16.24
2023-08-17T06:20:21.535Z,16.23
2023-08-17T06:22:50.180Z,16.20
2023-08-17T06:25:18.090Z,16.28
2023-08-17T06:27:46.062Z,16.29
2023-08-17T06:30:14.589Z,16.23
2023-08-17T06:32:42.391Z,16.22
2023-08-17T06:35:11.841Z,16.28
2023-08-17T06:37:39.649Z,16.14
2023-08-17T06:40:10.212Z,16.19
2023-08-17T06:42:38.297Z,16.13
2023-08-17T06:45:08.033Z,16.38
2023-08-17T06:47:35.878Z,16.42
2023-08-17T06:50:04.415Z,16.42
2023-08-17T06:52:34.878Z,16.55
2023-08-17T06:55:02.635Z,16.61
2023-08-17T06:57:30.729Z,16.66
2023-08-17T06:59:58.572Z,16.79
2023-08-17T07:02:33.060Z,16.63
2023-08-17T07:05:07.697Z,16.36
2023-08-17T07:07:37.305Z,16.40
2023-08-17T07:10:05.522Z,16.48
2023-08-17T07:12:33.350Z,16.55
2023-08-17T07:15:01.167Z,16.56
2023-08-17T07:17:29.234Z,16.55
2023-08-17T07:20:14.815Z,16.62
2023-08-17T07:22:45.570Z,16.80
2023-08-17T07:25:13.385Z,16.46
2023-08-17T07:27:41.481Z,16.67
2023-08-17T07:30:10.286Z,16.66
2023-08-17T07:32:38.113Z,16.72
2023-08-17T07:35:06.958Z,16.63
2023-08-17T07:37:35.260Z,16.95
2023-08-17T07:40:05.568Z,16.92
2023-08-17T07:42:33.421Z,17.15
2023-08-17T07:45:02.348Z,16.91
2023-08-17T07:47:30.362Z,16.97
2023-08-17T07:49:58.945Z,17.13
2023-08-17T07:52:26.719Z,17.21
2023-08-17T07:54:54.554Z,17.22
2023-08-17T07:57:23.779Z,17.20
2023-08-17T07:59:52.212Z,17.24
2023-08-17T08:02:20.127Z,17.34
2023-08-17T08:04:47.970Z,17.64
2023-08-17T08:07:15.807Z,17.71
2023-08-17T08:09:43.728Z,17.71
2023-08-17T08:12:11.517Z,17.84
2023-08-17T08:14:40.664Z,17.92
2023-08-17T08:17:08.429Z,17.80
2023-08-17T08:19:37.287Z,17.82
2023-08-17T08:22:05.132Z,18.04
2023-08-17T08:24:38.294Z,18.03
2023-08-17T08:27:06.960Z,18.08
2023-08-17T08:29:35.684Z,18.09
2023-08-17T08:32:05.276Z,17.78
2023-08-17T08:34:33.375Z,17.72
2023-08-17T08:37:01.199Z,17.77
2023-08-17T08:39:29.086Z,17.68
2023-08-17T08:41:57.109Z,17.89
2023-08-17T08:44:25.093Z,17.97
2023-08-17T08:46:57.008Z,17.94
2023-08-17T08:49:27.183Z,17.97
2023-08-17T08:51:54.957Z,18.15
2023-08-17T08:54:24.194Z,18.28
2023-08-17T08:56:57.543Z,18.41
2023-08-17T08:59:28.217Z,18.31
2023-08-17T09:01:57.490Z,18.36
2023-08-17T09:04:27.926Z,18.58
2023-08-17T09:06:57.545Z,18.49
2023-08-17T09:09:29.465Z,18.40
2023-08-17T09:11:58.304Z,18.23
2023-08-17T09:14:26.196Z,18.22
2023-08-17T09:16:54.008Z,18.57
2023-08-17T09:19:22.271Z,18.32
2023-08-17T09:21:51.778Z,18.42
2023-08-17T09:24:19.653Z,18.64
2023-08-17T09:26:47.496Z,18.59
2023-08-17T09:29:19.731Z,18.49
2023-08-17T09:31:47.772Z,18.86
2023-08-17T09:34:17.008Z,18.93
2023-08-17T09:36:48.193Z,18.92
2023-08-17T09:39:19.059Z,18.49
2023-08-17T09:41:47.279Z,18.66
2023-08-17T09:44:15.105Z,18.88
2023-08-17T09:46:45.475Z,18.69
2023-08-17T09:49:13.469Z,18.84
2023-08-17T09:51:44.548Z,19.22
2023-08-17T09:54:22.196Z,19.55
2023-08-17T09:56:51.879Z,19.80
2023-08-17T09:59:19.985Z,19.73
2023-08-17T10:01:56.778Z,19.94
2023-08-17T10:04:25.727Z,19.70
2023-08-17T10:07:02.271Z,20.34
2023-08-17T10:09:38.302Z,20.07
2023-08-17T10:12:13.230Z,20.08
2023-08-17T10:14:48.569Z,20.41
2023-08-17T10:17:24.443Z,20.89
2023-08-17T10:19:56.258Z,20.63
2023-08-17T10:22:30.856Z,20.32
2023-08-17T10:25:02.422Z,19.81
2023-08-17T10:27:31.346Z,19.59
2023-08-17T10:30:01.326Z,19.46
2023-08-17T10:32:30.209Z,19.62
2023-08-17T10:34:59.778Z,19.65
2023-08-17T10:37:28.850Z,19.51
2023-08-17T10:39:56.705Z,19.65
2023-08-17T10:42:36.265Z,19.45
2023-08-17T10:48:23.046Z,19.76
2023-08-17T10:51:02.415Z,19.50
2023-08-17T10:53:36.710Z,19.32
2023-08-17T10:56:09.328Z,19.48
2023-08-17T10:58:38.656Z,19.31
2023-08-17T11:01:06.892Z,19.60
2023-08-17T11:03:37.466Z,19.48
2023-08-17T11:06:19.489Z,19.69
2023-08-17T11:08:56.730Z,19.58
2023-08-17T11:11:25.445Z,19.34
2023-08-17T11:13:57.898Z,19.57
2023-08-17T11:16:26.127Z,19.58
2023-08-17T11:18:56.690Z,19.79
2023-08-17T11:21:24.578Z,20.21
2023-08-17T11:23:52.444Z,20.13
2023-08-17T11:26:20.815Z,20.19
2023-08-17T11:28:49.134Z,20.02
2023-08-17T11:31:18.276Z,20.06
2023-08-17T11:33:47.939Z,20.38
2023-08-17T11:36:16.424Z,20.48
2023-08-17T11:38:45.435Z,20.16
2023-08-17T11:41:18.925Z,20.71
2023-08-17T11:43:47.992Z,20.38
2023-08-17T11:46:17.105Z,20.58
2023-08-17T11:48:46.354Z,20.54
2023-08-17T11:51:14.190Z,21.03
2023-08-17T11:53:42.218Z,20.49
2023-08-17T11:56:11.153Z,20.77
2023-08-17T11:58:43.683Z,20.91
2023-08-17T12:01:12.875Z,21.19
2023-08-17T12:03:42.469Z,20.86
2023-08-17T12:06:13.981Z,21.02
2023-08-17T12:08:47.078Z,21.11
2023-08-17T12:11:15.832Z,21.34
2023-08-17T12:13:43.838Z,20.91
2023-08-17T12:16:17.234Z,21.18
2023-08-17T12:18:46.474Z,21.27
2023-08-17T12:21:15.735Z,20.94
2023-08-17T12:23:43.750Z,20.77
2023-08-17T12:26:11.511Z,20.34
2023-08-17T12:28:42.222Z,20.75
2023-08-17T12:31:10.140Z,20.75
2023-08-17T12:33:37.956Z,20.78
2023-08-17T12:36:07.853Z,20.66
2023-08-17T12:38:39.073Z,20.33
2023-08-17T12:41:07.470Z,20.79
2023-08-17T12:43:35.416Z,20.43
2023-08-17T12:46:03.182Z,20.57
2023-08-17T12:48:36.251Z,20.52
2023-08-17T12:51:05.432Z,20.60
2023-08-17T12:53:33.446Z,20.65
2023-08-17T12:56:02.754Z,20.66
2023-08-17T12:58:30.568Z,20.61
2023-08-17T13:00:58.413Z,20.62
2023-08-17T13:03:26.499Z,20.55
2023-08-17T13:05:54.439Z,20.81
2023-08-17T13:08:22.398Z,20.87
2023-08-17T13:10:50.216Z,20.85
2023-08-17T13:13:19.366Z,20.84
2023-08-17T13:15:47.210Z,20.74
2023-08-17T13:18:15.029Z,20.59
2023-08-17T13:20:42.991Z,20.58
2023-08-17T13:23:10.875Z,20.82
2023-08-17T13:25:38.722Z,20.66
2023-08-17T13:28:07.034Z,20.35
2023-08-17T13:30:36.157Z,20.55
2023-08-17T13:33:04.046Z,20.56
2023-08-17T13:35:32.195Z,20.65
2023-08-17T13:38:00.019Z,20.12
2023-08-17T13:40:27.890Z,20.31
2023-08-17T13:42:55.676Z,20.28
2023-08-17T13:45:23.471Z,20.40
2023-08-17T13:47:52.698Z,20.24
2023-08-17T13:50:20.550Z,20.46
2023-08-17T13:52:48.872Z,20.77
2023-08-17T13:55:16.873Z,20.94
2023-08-17T13:57:44.753Z,20.93
2023-08-17T14:00:13.844Z,21.01
2023-08-17T14:02:41.705Z,21.11
2023-08-17T14:05:10.998Z,20.67
2023-08-17T14:07:38.769Z,20.58
2023-08-17T14:10:10.571Z,20.81
2023-08-17T14:12:41.727Z,20.57
2023-08-17T14:15:10.255Z,20.31
2023-08-17T14:17:38.105Z,20.52
2023-08-17T14:20:06.720Z,20.47
2023-08-17T14:22:35.900Z,20.38
2023-08-17T14:25:04.201Z,20.44
2023-08-17T14:27:31.948Z,19.97
2023-08-17T14:30:02.426Z,20.11
2023-08-17T14:32:34.695Z,20.24
2023-08-17T14:35:03.201Z,20.38
2023-08-17T14:37:31.457Z,20.17
2023-08-17T14:40:00.992Z,20.38
2023-08-17T14:42:30.636Z,20.34
2023-08-17T14:44:58.528Z,20.33
2023-08-17T14:47:26.602Z,20.35
2023-08-17T14:49:55.107Z,20.41
2023-08-17T14:52:22.961Z,20.47
2023-08-17T14:54:50.817Z,20.49
2023-08-17T14:57:20.046Z,20.45
2023-08-17T14:59:47.941Z,20.46
2023-08-17T15:04:48.914Z,20.60
2023-08-17T15:07:17.517Z,20.54
2023-08-17T15:09:45.345Z,20.19
2023-08-17T15:12:13.246Z,20.27
2023-08-17T15:14:42.418Z,20.26
2023-08-17T15:17:13.534Z,20.50
2023-08-17T15:19:41.635Z,20.25
2023-08-17T15:22:15.335Z,20.44
2023-08-17T15:24:44.793Z,20.72
2023-08-17T15:27:12.753Z,20.86
2023-08-17T15:29:42.195Z,20.72
2023-08-17T15:32:10.887Z,21.20
2023-08-17T15:34:38.812Z,21.42
2023-08-17T15:37:07.859Z,21.67
2023-08-17T15:39:35.786Z,21.52
2023-08-17T15:42:03.629Z,21.87
2023-08-17T15:44:33.418Z,21.65
2023-08-17T15:47:02.969Z,21.28
2023-08-17T15:49:30.905Z,21.44
2023-08-17T15:51:58.756Z,21.32
2023-08-17T15:54:35.812Z,21.26
2023-08-17T15:57:05.551Z,21.30
2023-08-17T15:59:33.666Z,21.08
2023-08-17T16:02:02.912Z,20.77
2023-08-17T16:04:30.770Z,20.62
2023-08-17T16:06:58.604Z,20.68
2023-08-17T16:09:30.740Z,20.61
2023-08-17T16:11:58.880Z,20.95
2023-08-17T16:14:26.844Z,20.76
2023-08-17T16:16:57.610Z,20.56
2023-08-17T16:19:27.380Z,20.61
2023-08-17T16:21:55.264Z,20.57
2023-08-17T16:26:54.067Z,20.21
2023-08-17T16:29:22.075Z,20.16
2023-08-17T16:32:01.898Z,20.14
2023-08-17T16:34:32.099Z,20.37
2023-08-17T16:37:00.258Z,20.35
2023-08-17T16:39:29.043Z,20.34
2023-08-17T16:41:58.565Z,20.42
2023-08-17T16:44:28.365Z,20.47
2023-08-17T16:46:56.644Z,20.44
2023-08-17T16:49:29.741Z,20.51
2023-08-17T16:52:00.521Z,20.48
2023-08-17T16:54:28.477Z,20.26
2023-08-17T16:56:56.320Z,19.94
2023-08-17T16:59:24.214Z,19.90
2023-08-17T17:01:52.026Z,19.84
2023-08-17T17:04:19.979Z,19.85
2023-08-17T17:06:47.888Z,19.81
2023-08-17T17:09:17.090Z,19.83
2023-08-17T17:11:45.023Z,19.88
2023-08-17T17:14:12.879Z,19.81
2023-08-17T17:16:40.696Z,19.79
2023-08-17T17:19:08.905Z,19.83
2023-08-17T17:21:36.955Z,19.83
2023-08-17T17:24:05.380Z,19.76
2023-08-17T17:26:37.468Z,19.77
2023-08-17T17:29:05.749Z,19.67
2023-08-17T17:31:33.700Z,19.82
2023-08-17T17:34:02.740Z,19.57
2023-08-17T17:36:31.424Z,19.74
2023-08-17T17:38:59.373Z,19.38
2023-08-17T17:41:27.309Z,19.38
2023-08-17T17:43:56.681Z,19.22
2023-08-17T17:46:24.685Z,19.31
2023-08-17T17:48:53.926Z,19.17
2023-08-17T17:51:22.476Z,19.22
2023-08-17T17:53:50.545Z,19.13
2023-08-17T17:56:18.413Z,19.09
2023-08-17T17:58:46.240Z,18.94
2023-08-17T18:01:15.525Z,18.83
2023-08-17T18:06:11.416Z,18.80
2023-08-17T18:08:39.365Z,18.72
2023-08-17T18:11:07.266Z,18.72
2023-08-17T18:13:35.089Z,18.61
2023-08-17T18:16:02.959Z,18.70
2023-08-17T18:18:33.545Z,18.78
2023-08-17T18:21:01.513Z,18.81
2023-08-17T18:23:29.902Z,18.70
2023-08-17T18:25:57.732Z,18.66
2023-08-17T18:28:25.659Z,18.53
2023-08-17T18:30:53.740Z,18.53
2023-08-17T18:33:21.620Z,18.53
2023-08-17T18:35:50.840Z,18.54
2023-08-17T18:38:18.708Z,18.63
2023-08-17T18:40:47.060Z,18.72
2023-08-17T18:43:14.876Z,18.72
2023-08-17T18:45:42.751Z,18.68
2023-08-17T18:48:10.584Z,18.62
2023-08-17T18:50:38.505Z,18.58
2023-08-17T18:53:07.614Z,18.65
2023-08-17T18:55:35.445Z,18.48
2023-08-17T18:58:03.282Z,18.45
2023-08-17T19:00:31.106Z,18.48
2023-08-17T19:02:59.041Z,18.30
2023-08-17T19:05:27.016Z,18.34
2023-08-17T19:07:54.979Z,18.42
2023-08-17T19:10:24.213Z,18.42
2023-08-17T19:12:52.066Z,18.33
2023-08-17T19:15:19.984Z,18.24
2023-08-17T19:17:47.992Z,18.40
2023-08-17T19:20:15.867Z,18.41
2023-08-17T19:22:43.859Z,18.29
2023-08-17T19:25:11.856Z,18.19
2023-08-17T19:27:41.433Z,18.08
2023-08-17T19:30:11.586Z,18.29
2023-08-17T19:32:41.548Z,18.22
2023-08-17T19:35:10.113Z,18.19
2023-08-17T19:37:38.042Z,18.19
2023-08-17T19:40:07.380Z,18.19
2023-08-17T19:42:35.314Z,18.08
2023-08-17T19:45:05.534Z,18.01
2023-08-17T19:47:33.458Z,18.12
2023-08-17T19:50:01.365Z,17.94
2023-08-17T19:52:29.298Z,18.05
2023-08-17T19:54:57.768Z,17.96
2023-08-17T19:57:26.684Z,18.08
2023-08-17T19:59:54.818Z,18.07
2023-08-17T20:02:24.114Z,18.14
2023-08-17T20:04:52.044Z,18.03
2023-08-17T20:07:19.849Z,18.00
2023-08-17T20:09:47.734Z,17.88
2023-08-17T20:12:15.558Z,17.76
2023-08-17T20:14:43.636Z,17.79
2023-08-17T20:17:11.915Z,17.70
2023-08-17T20:19:41.117Z,17.73
2023-08-17T20:22:09.193Z,17.63
2023-08-17T20:24:37.031Z,17.77
2023-08-17T20:27:06.364Z,17.73
2023-08-17T20:29:34.397Z,17.73
2023-08-17T20:32:02.316Z,17.68
2023-08-17T20:34:30.356Z,17.67
2023-08-17T20:36:59.570Z,17.68
2023-08-17T20:39:27.415Z,17.65
2023-08-17T20:41:55.994Z,17.53
2023-08-17T20:44:23.839Z,17.53
2023-08-17T20:46:52.287Z,17.64
2023-08-17T20:49:21.785Z,17.59
2023-08-17T20:51:51.317Z,17.68
2023-08-17T20:54:20.665Z,17.60
2023-08-17T20:56:48.552Z,17.59
2023-08-17T20:59:16.636Z,17.62
2023-08-17T21:01:44.587Z,17.63
2023-08-17T21:04:12.385Z,17.69
2023-08-17T21:06:42.263Z,17.48
2023-08-17T21:09:10.924Z,17.50
2023-08-17T21:11:40.177Z,17.63
2023-08-17T21:14:07.999Z,17.55
2023-08-17T21:16:37.204Z,17.55
2023-08-17T21:19:06.629Z,17.60
2023-08-17T21:21:34.745Z,17.47
2023-08-17T21:24:02.688Z,17.60
2023-08-17T21:26:30.555Z,17.52
2023-08-17T21:28:59.759Z,17.50
2023-08-17T21:31:27.697Z,17.43
2023-08-17T21:33:55.604Z,17.54
2023-08-17T21:36:23.592Z,17.48
2023-08-17T21:38:51.446Z,17.18
2023-08-17T21:41:19.317Z,17.24
2023-08-17T21:43:47.220Z,17.32
2023-08-17T21:46:16.549Z,17.38
2023-08-17T21:48:44.408Z,17.36
2023-08-17T21:51:12.255Z,17.21
2023-08-17T21:53:40.490Z,17.16
2023-08-17T21:56:08.380Z,17.19
2023-08-17T21:58:36.204Z,17.31
2023-08-17T22:01:04.051Z,17.31
2023-08-17T22:03:33.445Z,17.32
2023-08-17T22:06:06.699Z,17.26
2023-08-17T22:08:34.742Z,17.22
2023-08-17T22:11:02.734Z,17.13
2023-08-17T22:13:30.572Z,17.10
2023-08-17T22:15:58.641Z,17.10
2023-08-17T22:18:26.454Z,17.11
2023-08-17T22:20:55.636Z,17.14
2023-08-17T22:23:23.536Z,17.28
2023-08-17T22:25:51.404Z,17.25
2023-08-17T22:28:19.266Z,17.23
2023-08-17T22:30:47.173Z,17.28
2023-08-17T22:33:15.124Z,17.32
2023-08-17T22:35:42.906Z,17.26
2023-08-17T22:38:12.126Z,17.24
2023-08-17T22:40:39.906Z,17.36
2023-08-17T22:43:07.770Z,17.36
2023-08-17T22:45:35.660Z,17.35
2023-08-17T22:48:03.558Z,17.30
2023-08-17T22:50:31.511Z,17.38
2023-08-17T22:52:59.285Z,17.38
2023-08-17T22:55:28.938Z,17.23
2023-08-17T22:57:56.832Z,17.15
2023-08-17T23:00:24.754Z,17.04
2023-08-17T23:02:52.668Z,17.02
2023-08-17T23:05:20.592Z,16.96
2023-08-17T23:07:48.485Z,16.96
2023-08-17T23:10:16.308Z,16.99
2023-08-17T23:12:45.606Z,17.09
2023-08-17T23:15:13.494Z,17.22
2023-08-17T23:17:41.305Z,17.03
2023-08-17T23:20:10.154Z,17.19
2023-08-17T23:22:38.049Z,17.13
2023-08-17T23:25:06.850Z,16.93
2023-08-17T23:27:34.764Z,16.80
2023-08-17T23:30:04.433Z,16.72
2023-08-17T23:32:32.488Z,16.87
2023-08-17T23:35:00.444Z,16.89
2023-08-17T23:37:28.597Z,16.82
2023-08-17T23:39:56.661Z,16.78
2023-08-17T23:42:24.498Z,16.75
2023-08-17T23:44:52.407Z,16.84
2023-08-17T23:47:21.624Z,16.82
2023-08-17T23:49:49.443Z,16.86
2023-08-17T23:52:17.256Z,16.87
2023-08-17T23:54:45.101Z,16.81
2023-08-17T23:57:13.078Z,16.90
2023-08-17T23:59:40.929Z,16.90
